KTDZ

Details ICAO KTDZ
Name Metcalf Fld
Region United States
Timezone America/New_York (UTC-5.0)
Plans Departing 5
Arriving 1
Stats Elevation 622 ft / 190 m (AMSL)
Location 41.564688° -83.482203°
Runways 2
Magnetic Variation 7.069° W
Sunrise 2017-12-16 12:55:47 UTC / 2017-12-16 07:55:47 Local
Sunset 2017-12-16 22:06:20 UTC / 2017-12-16 17:06:20 Local
Advertisement - Login to hide

Runways

ID Width Length Bearing (true) Bearing (mag) Surface Threshold Offset Overrun Length
04 150 ft / 46 m 3,664 ft / 1,117 m 38.69° 45.76° Asphalt 0 ft / 0 m 0 ft / 0 m
14 100 ft / 30 m 5,826 ft / 1,776 m 134.09° 141.16° Asphalt 580 ft / 177 m 0 ft / 0 m
22 150 ft / 46 m 3,664 ft / 1,117 m 218.69° 225.76° Asphalt 90 ft / 27 m 0 ft / 0 m
32 100 ft / 30 m 5,826 ft / 1,776 m 314.10° 321.17° Asphalt 580 ft / 177 m 0 ft / 0 m

Map

Weather


0- 5 10 15 20 25 30 35+ Temperature / ° C

Clouds and Precipitation
Forecast for 2017-12-16 18:00 UTC. Updated 5 minutes ago

Ground ~20,000 ft ~40,000 ft Winds

METAR

KTDZ 161653Z AUTO 22008KT 8SM OVC100 03/M02 A2999 RMK AO2 SLP161 T00281022

TAF

Not found

Frequencies

Recorded 121.57 MHz ASOS
Clearance 125.60 MHz CLNC DEL
Unicom 123.05 MHz CTAF/UNICOM
Approach 126.10 MHz TOLEDO APP/DEP
Warning: Do not use this data for real-world aviation or navigation. No guarantee of current accuracy is given.